sensor_id;sensor_type;location;lat;lon;timestamp;temperature;humidity
12335;DHT22;6233;51.560;9.986;2023-06-26T00:02:35;21.80;99.90
12335;DHT22;6233;51.560;9.986;2023-06-26T00:05:37;21.80;99.90
12335;DHT22;6233;51.560;9.986;2023-06-26T00:08:39;21.70;99.90
12335;DHT22;6233;51.560;9.986;2023-06-26T00:11:41;21.70;99.90
12335;DHT22;6233;51.560;9.986;2023-06-26T00:14:43;21.70;99.90
12335;DHT22;6233;51.560;9.986;2023-06-26T00:17:44;21.60;99.90
12335;DHT22;6233;51.560;9.986;2023-06-26T00:20:46;21.70;99.90
12335;DHT22;6233;51.560;9.986;2023-06-26T00:23:48;21.60;99.90
12335;DHT22;6233;51.560;9.986;2023-06-26T00:26:50;21.60;99.90
12335;DHT22;6233;51.560;9.986;2023-06-26T00:29:52;21.50;99.90
12335;DHT22;6233;51.560;9.986;2023-06-26T00:32:54;21.50;99.90
12335;DHT22;6233;51.560;9.986;2023-06-26T00:35:56;21.50;99.90
12335;DHT22;6233;51.560;9.986;2023-06-26T00:38:58;21.50;99.90
12335;DHT22;6233;51.560;9.986;2023-06-26T00:42:00;21.40;99.90
12335;DHT22;6233;51.560;9.986;2023-06-26T00:45:01;21.40;99.90
12335;DHT22;6233;51.560;9.986;2023-06-26T00:48:04;21.40;99.90
12335;DHT22;6233;51.560;9.986;2023-06-26T00:51:07;21.40;99.90
12335;DHT22;6233;51.560;9.986;2023-06-26T00:54:10;21.40;99.90
12335;DHT22;6233;51.560;9.986;2023-06-26T00:57:12;21.40;99.90
12335;DHT22;6233;51.560;9.986;2023-06-26T01:00:14;21.30;99.90
12335;DHT22;6233;51.560;9.986;2023-06-26T01:03:17;21.30;99.90
12335;DHT22;6233;51.560;9.986;2023-06-26T01:06:21;21.30;99.90
12335;DHT22;6233;51.560;9.986;2023-06-26T01:09:23;21.20;99.90
12335;DHT22;6233;51.560;9.986;2023-06-26T01:12:25;21.20;99.90
12335;DHT22;6233;51.560;9.986;2023-06-26T01:15:27;21.20;99.90
12335;DHT22;6233;51.560;9.986;2023-06-26T01:18:30;21.30;99.90
12335;DHT22;6233;51.560;9.986;2023-06-26T01:21:32;21.20;99.90
12335;DHT22;6233;51.560;9.986;2023-06-26T01:24:36;21.20;99.90
12335;DHT22;6233;51.560;9.986;2023-06-26T01:27:40;21.20;99.90
12335;DHT22;6233;51.560;9.986;2023-06-26T01:30:44;21.10;99.90
12335;DHT22;6233;51.560;9.986;2023-06-26T01:33:47;21.10;99.90
12335;DHT22;6233;51.560;9.986;2023-06-26T01:36:49;21.00;99.90
12335;DHT22;6233;51.560;9.986;2023-06-26T01:39:50;21.00;99.90
12335;DHT22;6233;51.560;9.986;2023-06-26T01:42:53;21.00;99.90
12335;DHT22;6233;51.560;9.986;2023-06-26T01:45:59;21.00;99.90
12335;DHT22;6233;51.560;9.986;2023-06-26T01:49:09;21.00;99.90
12335;DHT22;6233;51.560;9.986;2023-06-26T01:52:26;21.00;99.90
12335;DHT22;6233;51.560;9.986;2023-06-26T01:55:51;21.00;99.90
12335;DHT22;6233;51.560;9.986;2023-06-26T01:58:55;21.00;99.90
12335;DHT22;6233;51.560;9.986;2023-06-26T02:01:58;21.00;99.90
12335;DHT22;6233;51.560;9.986;2023-06-26T02:05:01;20.90;99.90
12335;DHT22;6233;51.560;9.986;2023-06-26T02:08:03;20.90;99.90
12335;DHT22;6233;51.560;9.986;2023-06-26T02:11:05;20.90;99.90
12335;DHT22;6233;51.560;9.986;2023-06-26T02:14:07;20.90;99.90
12335;DHT22;6233;51.560;9.986;2023-06-26T02:17:10;20.90;99.90
12335;DHT22;6233;51.560;9.986;2023-06-26T02:20:12;20.90;99.90
12335;DHT22;6233;51.560;9.986;2023-06-26T02:23:14;20.90;99.90
12335;DHT22;6233;51.560;9.986;2023-06-26T02:26:16;20.80;99.90
12335;DHT22;6233;51.560;9.986;2023-06-26T02:29:17;20.90;99.90
12335;DHT22;6233;51.560;9.986;2023-06-26T02:32:19;20.80;99.90
12335;DHT22;6233;51.560;9.986;2023-06-26T02:35:21;20.80;99.90
12335;DHT22;6233;51.560;9.986;2023-06-26T02:38:22;20.70;99.90
12335;DHT22;6233;51.560;9.986;2023-06-26T02:41:24;20.80;99.90
12335;DHT22;6233;51.560;9.986;2023-06-26T02:44:26;20.70;99.90
12335;DHT22;6233;51.560;9.986;2023-06-26T02:47:28;20.70;99.90
12335;DHT22;6233;51.560;9.986;2023-06-26T02:50:29;20.60;99.90
12335;DHT22;6233;51.560;9.986;2023-06-26T02:53:31;20.60;99.90
12335;DHT22;6233;51.560;9.986;2023-06-26T02:56:33;20.50;99.90
12335;DHT22;6233;51.560;9.986;2023-06-26T02:59:36;20.50;99.90
12335;DHT22;6233;51.560;9.986;2023-06-26T03:02:41;20.50;99.90
12335;DHT22;6233;51.560;9.986;2023-06-26T03:10:05;20.50;99.90
12335;DHT22;6233;51.560;9.986;2023-06-26T03:13:07;20.40;99.90
12335;DHT22;6233;51.560;9.986;2023-06-26T03:16:09;20.40;99.90
12335;DHT22;6233;51.560;9.986;2023-06-26T03:19:10;20.40;99.90
12335;DHT22;6233;51.560;9.986;2023-06-26T03:22:12;20.40;99.90
12335;DHT22;6233;51.560;9.986;2023-06-26T03:25:14;20.30;99.90
12335;DHT22;6233;51.560;9.986;2023-06-26T03:28:16;20.30;99.90
12335;DHT22;6233;51.560;9.986;2023-06-26T03:31:18;20.30;99.90
12335;DHT22;6233;51.560;9.986;2023-06-26T03:34:20;20.20;99.90
12335;DHT22;6233;51.560;9.986;2023-06-26T03:37:22;20.20;99.90
12335;DHT22;6233;51.560;9.986;2023-06-26T03:40:24;20.20;99.90
12335;DHT22;6233;51.560;9.986;2023-06-26T03:43:26;20.20;99.90
12335;DHT22;6233;51.560;9.986;2023-06-26T03:46:28;20.10;99.90
12335;DHT22;6233;51.560;9.986;2023-06-26T03:49:30;20.20;99.90
12335;DHT22;6233;51.560;9.986;2023-06-26T03:52:32;20.20;99.90
12335;DHT22;6233;51.560;9.986;2023-06-26T03:55:33;20.30;99.90
12335;DHT22;6233;51.560;9.986;2023-06-26T03:58:36;20.30;99.90
12335;DHT22;6233;51.560;9.986;2023-06-26T04:01:38;20.30;99.90
12335;DHT22;6233;51.560;9.986;2023-06-26T04:04:40;20.30;99.90
12335;DHT22;6233;51.560;9.986;2023-06-26T04:07:41;20.30;99.90
12335;DHT22;6233;51.560;9.986;2023-06-26T04:10:43;20.30;99.90
12335;DHT22;6233;51.560;9.986;2023-06-26T04:13:47;20.40;99.90
12335;DHT22;6233;51.560;9.986;2023-06-26T04:16:48;20.40;99.90
12335;DHT22;6233;51.560;9.986;2023-06-26T04:19:50;20.40;99.90
12335;DHT22;6233;51.560;9.986;2023-06-26T04:22:52;20.40;99.90
12335;DHT22;6233;51.560;9.986;2023-06-26T04:25:54;20.40;99.90
12335;DHT22;6233;51.560;9.986;2023-06-26T04:28:55;20.40;99.90
12335;DHT22;6233;51.560;9.986;2023-06-26T04:31:57;20.40;99.90
12335;DHT22;6233;51.560;9.986;2023-06-26T04:35:00;20.50;99.90
12335;DHT22;6233;51.560;9.986;2023-06-26T04:38:01;20.50;99.90
12335;DHT22;6233;51.560;9.986;2023-06-26T04:41:04;20.60;99.90
12335;DHT22;6233;51.560;9.986;2023-06-26T04:44:06;20.60;99.90
12335;DHT22;6233;51.560;9.986;2023-06-26T04:47:08;20.70;99.90
12335;DHT22;6233;51.560;9.986;2023-06-26T04:50:10;20.70;99.90
12335;DHT22;6233;51.560;9.986;2023-06-26T04:53:12;20.80;99.90
12335;DHT22;6233;51.560;9.986;2023-06-26T04:56:30;20.90;99.90
12335;DHT22;6233;51.560;9.986;2023-06-26T04:59:32;21.00;99.90
12335;DHT22;6233;51.560;9.986;2023-06-26T05:02:33;21.10;99.90
12335;DHT22;6233;51.560;9.986;2023-06-26T05:05:36;21.30;99.90
12335;DHT22;6233;51.560;9.986;2023-06-26T05:08:38;21.60;99.90
12335;DHT22;6233;51.560;9.986;2023-06-26T05:11:40;21.90;99.90
12335;DHT22;6233;51.560;9.986;2023-06-26T05:14:42;22.40;99.90
12335;DHT22;6233;51.560;9.986;2023-06-26T05:17:43;22.80;99.90
12335;DHT22;6233;51.560;9.986;2023-06-26T05:20:45;23.30;99.90
12335;DHT22;6233;51.560;9.986;2023-06-26T05:23:48;23.60;99.90
12335;DHT22;6233;51.560;9.986;2023-06-26T05:26:51;23.90;99.90
12335;DHT22;6233;51.560;9.986;2023-06-26T05:29:53;24.20;99.90
12335;DHT22;6233;51.560;9.986;2023-06-26T05:32:55;24.50;99.90
12335;DHT22;6233;51.560;9.986;2023-06-26T05:35:59;24.70;99.90
12335;DHT22;6233;51.560;9.986;2023-06-26T05:39:02;24.90;99.90
12335;DHT22;6233;51.560;9.986;2023-06-26T05:42:04;25.00;99.90
12335;DHT22;6233;51.560;9.986;2023-06-26T05:45:06;25.30;99.90
12335;DHT22;6233;51.560;9.986;2023-06-26T05:48:08;25.40;99.90
12335;DHT22;6233;51.560;9.986;2023-06-26T05:51:10;25.60;99.90
12335;DHT22;6233;51.560;9.986;2023-06-26T05:54:12;25.80;99.90
12335;DHT22;6233;51.560;9.986;2023-06-26T05:57:15;26.00;99.90
12335;DHT22;6233;51.560;9.986;2023-06-26T06:00:17;26.30;99.90
12335;DHT22;6233;51.560;9.986;2023-06-26T06:03:19;26.60;99.90
12335;DHT22;6233;51.560;9.986;2023-06-26T06:06:21;27.10;99.90
12335;DHT22;6233;51.560;9.986;2023-06-26T06:09:23;27.50;99.90
12335;DHT22;6233;51.560;9.986;2023-06-26T06:12:26;27.90;99.90
12335;DHT22;6233;51.560;9.986;2023-06-26T06:15:28;28.50;99.90
12335;DHT22;6233;51.560;9.986;2023-06-26T06:18:31;28.90;99.90
12335;DHT22;6233;51.560;9.986;2023-06-26T06:21:33;29.00;99.90
12335;DHT22;6233;51.560;9.986;2023-06-26T06:28:57;27.90;99.90
12335;DHT22;6233;51.560;9.986;2023-06-26T06:31:59;27.40;99.90
12335;DHT22;6233;51.560;9.986;2023-06-26T06:35:01;27.10;99.90
12335;DHT22;6233;51.560;9.986;2023-06-26T06:38:10;27.00;99.90
12335;DHT22;6233;51.560;9.986;2023-06-26T06:41:11;26.70;99.90
12335;DHT22;6233;51.560;9.986;2023-06-26T06:44:14;26.60;99.90
12335;DHT22;6233;51.560;9.986;2023-06-26T06:47:15;26.80;99.90
12335;DHT22;6233;51.560;9.986;2023-06-26T06:50:17;27.20;99.90
12335;DHT22;6233;51.560;9.986;2023-06-26T06:53:20;27.90;99.90
12335;DHT22;6233;51.560;9.986;2023-06-26T06:56:22;28.20;99.90
12335;DHT22;6233;51.560;9.986;2023-06-26T06:59:24;28.60;99.90
12335;DHT22;6233;51.560;9.986;2023-06-26T07:02:26;28.80;99.90
12335;DHT22;6233;51.560;9.986;2023-06-26T07:05:27;29.00;99.90
12335;DHT22;6233;51.560;9.986;2023-06-26T07:08:29;29.40;99.90
12335;DHT22;6233;51.560;9.986;2023-06-26T07:11:31;29.50;99.90
12335;DHT22;6233;51.560;9.986;2023-06-26T07:14:33;29.50;99.90
12335;DHT22;6233;51.560;9.986;2023-06-26T07:17:35;29.60;99.90
12335;DHT22;6233;51.560;9.986;2023-06-26T07:20:37;29.70;99.90
12335;DHT22;6233;51.560;9.986;2023-06-26T07:23:39;29.60;99.90
12335;DHT22;6233;51.560;9.986;2023-06-26T07:26:41;29.50;99.90
12335;DHT22;6233;51.560;9.986;2023-06-26T07:29:47;29.50;99.90
12335;DHT22;6233;51.560;9.986;2023-06-26T07:32:49;29.50;99.90
12335;DHT22;6233;51.560;9.986;2023-06-26T07:35:51;29.60;99.90
12335;DHT22;6233;51.560;9.986;2023-06-26T07:38:53;29.80;99.90
12335;DHT22;6233;51.560;9.986;2023-06-26T07:41:55;30.20;99.90
12335;DHT22;6233;51.560;9.986;2023-06-26T07:44:56;30.20;99.90
12335;DHT22;6233;51.560;9.986;2023-06-26T07:47:58;30.70;99.90
12335;DHT22;6233;51.560;9.986;2023-06-26T07:51:00;30.90;99.90
12335;DHT22;6233;51.560;9.986;2023-06-26T07:54:02;31.00;99.90
12335;DHT22;6233;51.560;9.986;2023-06-26T07:57:04;31.10;99.90
12335;DHT22;6233;51.560;9.986;2023-06-26T08:00:09;31.10;99.90
12335;DHT22;6233;51.560;9.986;2023-06-26T08:03:10;31.40;99.90
12335;DHT22;6233;51.560;9.986;2023-06-26T08:06:26;31.50;99.90
12335;DHT22;6233;51.560;9.986;2023-06-26T08:09:29;31.30;99.90
12335;DHT22;6233;51.560;9.986;2023-06-26T08:12:31;31.40;99.90
12335;DHT22;6233;51.560;9.986;2023-06-26T08:15:33;31.50;99.90
12335;DHT22;6233;51.560;9.986;2023-06-26T08:18:35;31.70;99.90
12335;DHT22;6233;51.560;9.986;2023-06-26T08:21:36;31.70;99.90
12335;DHT22;6233;51.560;9.986;2023-06-26T08:24:38;31.90;99.90
12335;DHT22;6233;51.560;9.986;2023-06-26T08:27:40;32.00;99.90
12335;DHT22;6233;51.560;9.986;2023-06-26T08:30:42;32.10;99.90
12335;DHT22;6233;51.560;9.986;2023-06-26T08:33:44;32.20;99.90
12335;DHT22;6233;51.560;9.986;2023-06-26T08:36:45;32.20;99.90
12335;DHT22;6233;51.560;9.986;2023-06-26T08:39:48;32.40;99.90
12335;DHT22;6233;51.560;9.986;2023-06-26T08:42:50;32.60;99.90
12335;DHT22;6233;51.560;9.986;2023-06-26T08:45:55;32.60;99.90
12335;DHT22;6233;51.560;9.986;2023-06-26T08:49:01;32.40;99.90
12335;DHT22;6233;51.560;9.986;2023-06-26T08:52:17;32.40;99.90
12335;DHT22;6233;51.560;9.986;2023-06-26T08:55:20;32.70;99.90
12335;DHT22;6233;51.560;9.986;2023-06-26T08:58:25;33.00;98.90
12335;DHT22;6233;51.560;9.986;2023-06-26T09:01:28;32.80;97.60
12335;DHT22;6233;51.560;9.986;2023-06-26T09:04:30;32.80;96.60
12335;DHT22;6233;51.560;9.986;2023-06-26T09:07:50;32.90;96.30
12335;DHT22;6233;51.560;9.986;2023-06-26T09:10:53;33.00;94.90
12335;DHT22;6233;51.560;9.986;2023-06-26T09:13:55;33.10;93.20
12335;DHT22;6233;51.560;9.986;2023-06-26T09:16:57;33.20;94.10
12335;DHT22;6233;51.560;9.986;2023-06-26T09:19:59;33.40;92.80
12335;DHT22;6233;51.560;9.986;2023-06-26T09:23:01;33.70;93.20
12335;DHT22;6233;51.560;9.986;2023-06-26T09:26:05;33.80;94.30
12335;DHT22;6233;51.560;9.986;2023-06-26T09:29:07;33.80;93.00
12335;DHT22;6233;51.560;9.986;2023-06-26T09:32:09;33.70;93.40
12335;DHT22;6233;51.560;9.986;2023-06-26T09:35:11;33.70;93.20
12335;DHT22;6233;51.560;9.986;2023-06-26T09:38:14;33.70;92.50
12335;DHT22;6233;51.560;9.986;2023-06-26T09:41:17;33.70;92.00
12335;DHT22;6233;51.560;9.986;2023-06-26T09:44:19;33.70;92.90
12335;DHT22;6233;51.560;9.986;2023-06-26T09:47:21;33.60;94.20
12335;DHT22;6233;51.560;9.986;2023-06-26T09:50:26;33.50;93.50
12335;DHT22;6233;51.560;9.986;2023-06-26T09:53:29;33.50;94.10
12335;DHT22;6233;51.560;9.986;2023-06-26T09:56:31;33.60;94.60
12335;DHT22;6233;51.560;9.986;2023-06-26T09:59:35;33.80;94.60
12335;DHT22;6233;51.560;9.986;2023-06-26T10:02:37;33.80;94.20
12335;DHT22;6233;51.560;9.986;2023-06-26T10:05:40;33.60;94.50
12335;DHT22;6233;51.560;9.986;2023-06-26T10:08:42;33.50;95.60
12335;DHT22;6233;51.560;9.986;2023-06-26T10:11:51;33.40;96.00
12335;DHT22;6233;51.560;9.986;2023-06-26T10:14:57;32.80;96.90
12335;DHT22;6233;51.560;9.986;2023-06-26T10:17:59;32.40;98.20
12335;DHT22;6233;51.560;9.986;2023-06-26T10:21:01;31.70;99.90
12335;DHT22;6233;51.560;9.986;2023-06-26T10:24:06;31.30;99.90
12335;DHT22;6233;51.560;9.986;2023-06-26T10:27:17;31.60;99.90
12335;DHT22;6233;51.560;9.986;2023-06-26T10:30:25;31.70;99.90
12335;DHT22;6233;51.560;9.986;2023-06-26T10:33:28;31.60;99.90
12335;DHT22;6233;51.560;9.986;2023-06-26T10:36:31;31.30;99.90
12335;DHT22;6233;51.560;9.986;2023-06-26T10:39:46;30.80;99.90
12335;DHT22;6233;51.560;9.986;2023-06-26T10:42:51;30.40;99.90
12335;DHT22;6233;51.560;9.986;2023-06-26T10:45:54;30.00;99.90
12335;DHT22;6233;51.560;9.986;2023-06-26T10:49:00;30.00;99.90
12335;DHT22;6233;51.560;9.986;2023-06-26T10:52:02;29.80;99.90
12335;DHT22;6233;51.560;9.986;2023-06-26T10:55:04;29.70;99.90
12335;DHT22;6233;51.560;9.986;2023-06-26T10:58:32;29.60;99.90
12335;DHT22;6233;51.560;9.986;2023-06-26T11:01:40;29.40;99.90
12335;DHT22;6233;51.560;9.986;2023-06-26T11:04:48;29.20;99.90
12335;DHT22;6233;51.560;9.986;2023-06-26T11:08:09;29.00;99.90
12335;DHT22;6233;51.560;9.986;2023-06-26T11:11:13;28.80;99.90
12335;DHT22;6233;51.560;9.986;2023-06-26T11:14:16;28.70;99.90
12335;DHT22;6233;51.560;9.986;2023-06-26T11:17:18;28.40;99.90
12335;DHT22;6233;51.560;9.986;2023-06-26T11:20:20;28.10;99.90
12335;DHT22;6233;51.560;9.986;2023-06-26T11:23:22;27.70;99.90
12335;DHT22;6233;51.560;9.986;2023-06-26T11:26:26;27.30;99.90
12335;DHT22;6233;51.560;9.986;2023-06-26T11:29:28;26.60;99.90
12335;DHT22;6233;51.560;9.986;2023-06-26T11:32:29;25.70;99.90
12335;DHT22;6233;51.560;9.986;2023-06-26T11:35:31;25.00;99.90
12335;DHT22;6233;51.560;9.986;2023-06-26T11:38:39;24.30;99.90
12335;DHT22;6233;51.560;9.986;2023-06-26T11:41:41;23.80;99.90
12335;DHT22;6233;51.560;9.986;2023-06-26T11:44:44;23.80;99.90
12335;DHT22;6233;51.560;9.986;2023-06-26T11:47:46;23.80;99.90
12335;DHT22;6233;51.560;9.986;2023-06-26T11:50:50;23.80;99.90
12335;DHT22;6233;51.560;9.986;2023-06-26T11:53:53;23.90;99.90
12335;DHT22;6233;51.560;9.986;2023-06-26T11:56:57;24.20;99.90
12335;DHT22;6233;51.560;9.986;2023-06-26T12:00:10;24.40;99.90
12335;DHT22;6233;51.560;9.986;2023-06-26T12:03:12;24.80;99.90
12335;DHT22;6233;51.560;9.986;2023-06-26T12:06:15;24.90;99.90
12335;DHT22;6233;51.560;9.986;2023-06-26T12:09:18;25.10;99.90
12335;DHT22;6233;51.560;9.986;2023-06-26T12:12:21;25.30;99.90
12335;DHT22;6233;51.560;9.986;2023-06-26T12:15:23;25.40;99.90
12335;DHT22;6233;51.560;9.986;2023-06-26T12:18:25;25.60;99.90
12335;DHT22;6233;51.560;9.986;2023-06-26T12:24:40;25.40;99.90
12335;DHT22;6233;51.560;9.986;2023-06-26T12:27:44;25.40;99.90
12335;DHT22;6233;51.560;9.986;2023-06-26T12:31:11;25.50;99.90
12335;DHT22;6233;51.560;9.986;2023-06-26T12:34:14;25.50;99.90
12335;DHT22;6233;51.560;9.986;2023-06-26T12:37:19;25.40;99.90
12335;DHT22;6233;51.560;9.986;2023-06-26T12:40:20;25.50;99.90
12335;DHT22;6233;51.560;9.986;2023-06-26T12:43:26;25.50;99.90
12335;DHT22;6233;51.560;9.986;2023-06-26T12:46:34;25.60;99.90
12335;DHT22;6233;51.560;9.986;2023-06-26T12:49:40;25.70;99.90
12335;DHT22;6233;51.560;9.986;2023-06-26T12:52:43;25.90;99.90
12335;DHT22;6233;51.560;9.986;2023-06-26T12:55:44;25.70;99.90
12335;DHT22;6233;51.560;9.986;2023-06-26T12:58:46;25.60;99.90
12335;DHT22;6233;51.560;9.986;2023-06-26T13:01:48;25.50;99.90
12335;DHT22;6233;51.560;9.986;2023-06-26T13:04:50;25.40;99.90
12335;DHT22;6233;51.560;9.986;2023-06-26T13:07:52;25.40;99.90
12335;DHT22;6233;51.560;9.986;2023-06-26T13:10:55;25.40;99.90
12335;DHT22;6233;51.560;9.986;2023-06-26T13:13:57;25.40;99.90
12335;DHT22;6233;51.560;9.986;2023-06-26T13:17:11;25.40;99.90
12335;DHT22;6233;51.560;9.986;2023-06-26T13:20:14;25.60;99.90
12335;DHT22;6233;51.560;9.986;2023-06-26T13:23:15;25.60;99.90
12335;DHT22;6233;51.560;9.986;2023-06-26T13:26:19;25.60;99.90
12335;DHT22;6233;51.560;9.986;2023-06-26T13:29:37;25.50;99.90
12335;DHT22;6233;51.560;9.986;2023-06-26T13:32:39;25.40;99.90
12335;DHT22;6233;51.560;9.986;2023-06-26T13:35:41;25.30;99.90
12335;DHT22;6233;51.560;9.986;2023-06-26T13:38:42;25.20;99.90
12335;DHT22;6233;51.560;9.986;2023-06-26T13:41:45;25.20;99.90
12335;DHT22;6233;51.560;9.986;2023-06-26T13:44:47;25.20;99.90
12335;DHT22;6233;51.560;9.986;2023-06-26T13:48:04;25.30;99.90
12335;DHT22;6233;51.560;9.986;2023-06-26T13:51:06;25.30;99.90
12335;DHT22;6233;51.560;9.986;2023-06-26T13:54:08;25.40;99.90
12335;DHT22;6233;51.560;9.986;2023-06-26T13:57:10;25.40;99.90
12335;DHT22;6233;51.560;9.986;2023-06-26T14:00:12;25.50;99.90
12335;DHT22;6233;51.560;9.986;2023-06-26T14:03:14;25.60;99.90
12335;DHT22;6233;51.560;9.986;2023-06-26T14:06:16;25.60;99.90
12335;DHT22;6233;51.560;9.986;2023-06-26T14:09:18;25.60;99.90
12335;DHT22;6233;51.560;9.986;2023-06-26T14:12:19;25.50;99.90
12335;DHT22;6233;51.560;9.986;2023-06-26T14:15:21;25.50;99.90
12335;DHT22;6233;51.560;9.986;2023-06-26T14:18:23;25.50;99.90
12335;DHT22;6233;51.560;9.986;2023-06-26T14:21:26;25.60;99.90
12335;DHT22;6233;51.560;9.986;2023-06-26T14:24:29;25.60;99.90
12335;DHT22;6233;51.560;9.986;2023-06-26T14:27:31;25.60;99.90
12335;DHT22;6233;51.560;9.986;2023-06-26T14:30:32;25.40;99.90
12335;DHT22;6233;51.560;9.986;2023-06-26T14:33:34;25.30;99.90
12335;DHT22;6233;51.560;9.986;2023-06-26T14:36:36;25.10;99.90
12335;DHT22;6233;51.560;9.986;2023-06-26T14:39:39;25.10;99.90
12335;DHT22;6233;51.560;9.986;2023-06-26T14:42:41;25.10;99.90
12335;DHT22;6233;51.560;9.986;2023-06-26T14:45:45;25.20;99.90
12335;DHT22;6233;51.560;9.986;2023-06-26T14:48:48;25.20;99.90
12335;DHT22;6233;51.560;9.986;2023-06-26T14:51:50;25.30;99.90
12335;DHT22;6233;51.560;9.986;2023-06-26T14:54:51;25.30;99.90
12335;DHT22;6233;51.560;9.986;2023-06-26T14:57:53;25.30;99.90
12335;DHT22;6233;51.560;9.986;2023-06-26T15:00:55;25.20;99.90
12335;DHT22;6233;51.560;9.986;2023-06-26T15:03:57;25.10;99.90
12335;DHT22;6233;51.560;9.986;2023-06-26T15:06:59;25.00;99.90
12335;DHT22;6233;51.560;9.986;2023-06-26T15:10:01;24.90;99.90
12335;DHT22;6233;51.560;9.986;2023-06-26T15:13:08;24.80;99.90
12335;DHT22;6233;51.560;9.986;2023-06-26T15:16:10;24.80;99.90
12335;DHT22;6233;51.560;9.986;2023-06-26T15:19:11;24.80;99.90
12335;DHT22;6233;51.560;9.986;2023-06-26T15:22:17;24.80;99.90
12335;DHT22;6233;51.560;9.986;2023-06-26T15:25:19;24.90;99.90
12335;DHT22;6233;51.560;9.986;2023-06-26T15:28:20;24.80;99.90
12335;DHT22;6233;51.560;9.986;2023-06-26T15:31:22;24.90;99.90
12335;DHT22;6233;51.560;9.986;2023-06-26T15:34:24;24.80;99.90
12335;DHT22;6233;51.560;9.986;2023-06-26T15:37:26;24.80;99.90
12335;DHT22;6233;51.560;9.986;2023-06-26T15:43:56;24.80;99.90
12335;DHT22;6233;51.560;9.986;2023-06-26T15:46:59;24.70;99.90
12335;DHT22;6233;51.560;9.986;2023-06-26T15:50:01;24.70;99.90
12335;DHT22;6233;51.560;9.986;2023-06-26T15:53:03;24.60;99.90
12335;DHT22;6233;51.560;9.986;2023-06-26T15:56:09;24.50;99.90
12335;DHT22;6233;51.560;9.986;2023-06-26T15:59:11;24.50;99.90
12335;DHT22;6233;51.560;9.986;2023-06-26T16:02:13;24.50;99.90
12335;DHT22;6233;51.560;9.986;2023-06-26T16:05:15;24.50;99.90
12335;DHT22;6233;51.560;9.986;2023-06-26T16:08:16;24.40;99.90
12335;DHT22;6233;51.560;9.986;2023-06-26T16:11:18;24.40;99.90
12335;DHT22;6233;51.560;9.986;2023-06-26T16:14:20;24.40;99.90
12335;DHT22;6233;51.560;9.986;2023-06-26T16:17:22;24.30;99.90
12335;DHT22;6233;51.560;9.986;2023-06-26T16:20:24;24.30;99.90
12335;DHT22;6233;51.560;9.986;2023-06-26T16:23:25;24.20;99.90
12335;DHT22;6233;51.560;9.986;2023-06-26T16:26:27;24.20;99.90
12335;DHT22;6233;51.560;9.986;2023-06-26T16:29:29;24.10;99.90
12335;DHT22;6233;51.560;9.986;2023-06-26T16:32:31;24.00;99.90
12335;DHT22;6233;51.560;9.986;2023-06-26T16:35:33;24.00;99.90
12335;DHT22;6233;51.560;9.986;2023-06-26T16:38:38;24.00;99.90
12335;DHT22;6233;51.560;9.986;2023-06-26T16:41:42;24.00;99.90
12335;DHT22;6233;51.560;9.986;2023-06-26T16:44:50;24.00;99.90
12335;DHT22;6233;51.560;9.986;2023-06-26T16:47:52;23.90;99.90
12335;DHT22;6233;51.560;9.986;2023-06-26T16:50:54;23.80;99.90
12335;DHT22;6233;51.560;9.986;2023-06-26T16:53:56;23.80;99.90
12335;DHT22;6233;51.560;9.986;2023-06-26T16:56:57;23.70;99.90
12335;DHT22;6233;51.560;9.986;2023-06-26T17:00:04;23.70;99.90
12335;DHT22;6233;51.560;9.986;2023-06-26T17:03:07;23.60;99.90
12335;DHT22;6233;51.560;9.986;2023-06-26T17:06:09;23.60;99.90
12335;DHT22;6233;51.560;9.986;2023-06-26T17:09:12;23.60;99.90
12335;DHT22;6233;51.560;9.986;2023-06-26T17:12:14;23.50;99.90
12335;DHT22;6233;51.560;9.986;2023-06-26T17:15:22;23.50;99.90
12335;DHT22;6233;51.560;9.986;2023-06-26T17:18:24;23.40;99.90
12335;DHT22;6233;51.560;9.986;2023-06-26T17:21:26;23.30;99.90
12335;DHT22;6233;51.560;9.986;2023-06-26T17:24:28;23.20;99.90
12335;DHT22;6233;51.560;9.986;2023-06-26T17:27:31;23.20;99.90
12335;DHT22;6233;51.560;9.986;2023-06-26T17:30:33;23.20;99.90
12335;DHT22;6233;51.560;9.986;2023-06-26T17:33:34;23.20;99.90
12335;DHT22;6233;51.560;9.986;2023-06-26T17:36:36;23.10;99.90
12335;DHT22;6233;51.560;9.986;2023-06-26T17:39:39;23.10;99.90
12335;DHT22;6233;51.560;9.986;2023-06-26T17:42:41;23.10;99.90
12335;DHT22;6233;51.560;9.986;2023-06-26T17:45:44;23.00;99.90
12335;DHT22;6233;51.560;9.986;2023-06-26T17:48:46;23.00;99.90
12335;DHT22;6233;51.560;9.986;2023-06-26T17:51:48;23.00;99.90
12335;DHT22;6233;51.560;9.986;2023-06-26T17:54:51;23.00;99.90
12335;DHT22;6233;51.560;9.986;2023-06-26T17:57:52;22.80;99.90
12335;DHT22;6233;51.560;9.986;2023-06-26T18:00:54;22.80;99.90
12335;DHT22;6233;51.560;9.986;2023-06-26T18:03:58;22.80;99.90
12335;DHT22;6233;51.560;9.986;2023-06-26T18:07:02;22.70;99.90
12335;DHT22;6233;51.560;9.986;2023-06-26T18:10:05;22.70;99.90
12335;DHT22;6233;51.560;9.986;2023-06-26T18:13:07;22.70;99.90
12335;DHT22;6233;51.560;9.986;2023-06-26T18:16:10;22.60;99.90
12335;DHT22;6233;51.560;9.986;2023-06-26T18:19:11;22.60;99.90
12335;DHT22;6233;51.560;9.986;2023-06-26T18:22:16;22.60;99.90
12335;DHT22;6233;51.560;9.986;2023-06-26T18:25:18;22.40;99.90
12335;DHT22;6233;51.560;9.986;2023-06-26T18:28:20;22.40;99.90
12335;DHT22;6233;51.560;9.986;2023-06-26T18:31:22;22.40;99.90
12335;DHT22;6233;51.560;9.986;2023-06-26T18:34:24;22.30;99.90
12335;DHT22;6233;51.560;9.986;2023-06-26T18:37:25;22.30;99.90
12335;DHT22;6233;51.560;9.986;2023-06-26T18:40:27;22.30;99.90
12335;DHT22;6233;51.560;9.986;2023-06-26T18:43:29;22.20;99.90
12335;DHT22;6233;51.560;9.986;2023-06-26T18:46:30;22.10;99.90
12335;DHT22;6233;51.560;9.986;2023-06-26T18:49:32;22.10;99.90
12335;DHT22;6233;51.560;9.986;2023-06-26T18:52:34;22.00;99.90
12335;DHT22;6233;51.560;9.986;2023-06-26T18:55:36;22.00;99.90
12335;DHT22;6233;51.560;9.986;2023-06-26T18:58:38;21.90;99.90
12335;DHT22;6233;51.560;9.986;2023-06-26T19:01:40;21.90;99.90
12335;DHT22;6233;51.560;9.986;2023-06-26T19:04:41;21.90;99.90
12335;DHT22;6233;51.560;9.986;2023-06-26T19:07:43;21.80;99.90
12335;DHT22;6233;51.560;9.986;2023-06-26T19:10:45;21.80;99.90
12335;DHT22;6233;51.560;9.986;2023-06-26T19:13:47;21.80;99.90
12335;DHT22;6233;51.560;9.986;2023-06-26T19:16:49;21.80;99.90
12335;DHT22;6233;51.560;9.986;2023-06-26T19:19:51;21.60;99.90
12335;DHT22;6233;51.560;9.986;2023-06-26T19:22:54;21.60;99.90
12335;DHT22;6233;51.560;9.986;2023-06-26T19:25:57;21.60;99.90
12335;DHT22;6233;51.560;9.986;2023-06-26T19:28:59;21.60;99.90
12335;DHT22;6233;51.560;9.986;2023-06-26T19:32:00;21.60;99.90
12335;DHT22;6233;51.560;9.986;2023-06-26T19:35:02;21.60;99.90
12335;DHT22;6233;51.560;9.986;2023-06-26T19:38:04;21.60;99.90
12335;DHT22;6233;51.560;9.986;2023-06-26T19:41:08;21.50;99.90
12335;DHT22;6233;51.560;9.986;2023-06-26T19:44:09;21.40;99.90
12335;DHT22;6233;51.560;9.986;2023-06-26T19:47:11;21.40;99.90
12335;DHT22;6233;51.560;9.986;2023-06-26T19:50:13;21.30;99.90